createdAt,value
2023-01-09T00:00:53.414Z,97296.77
2023-01-09T00:03:20.043Z,97292.48
2023-01-09T00:05:46.670Z,97291.41
2023-01-09T00:08:13.088Z,97304.58
2023-01-09T00:10:39.845Z,97303.37
2023-01-09T00:13:06.390Z,97301.31
2023-01-09T00:15:34.149Z,97303.46
2023-01-09T00:18:00.585Z,97292.48
2023-01-09T00:20:27.039Z,97286.87
2023-01-09T00:22:53.499Z,97284.09
2023-01-09T00:25:19.924Z,97291.67
2023-01-09T00:27:46.457Z,97289.52
2023-01-09T00:30:13.044Z,97285.88
2023-01-09T00:32:40.646Z,97278.96
2023-01-09T00:35:12.007Z,97277.69
2023-01-09T00:37:38.650Z,97276.73
2023-01-09T00:40:05.749Z,97276.77
2023-01-09T00:42:33.826Z,97277.11
2023-01-09T00:45:04.632Z,97268.97
2023-01-09T00:47:41.817Z,97276.05
2023-01-09T00:50:14.610Z,97271.59
2023-01-09T00:52:41.969Z,97275.98
2023-01-09T00:55:09.636Z,97278.79
2023-01-09T00:57:36.477Z,97273.84
2023-01-09T01:00:05.038Z,97273.51
2023-01-09T01:02:31.677Z,97265.88
2023-01-09T01:04:58.273Z,97262.03
2023-01-09T01:07:24.718Z,97270.18
2023-01-09T01:09:51.293Z,97274.66
2023-01-09T01:12:17.718Z,97277.56
2023-01-09T01:14:44.413Z,97273.04
2023-01-09T01:17:14.556Z,97272.26
2023-01-09T01:19:41.080Z,97269.65
2023-01-09T01:22:07.715Z,97265.58
2023-01-09T01:24:34.344Z,97268.79
2023-01-09T01:27:00.951Z,97265.23
2023-01-09T01:29:27.961Z,97260.53
2023-01-09T01:31:54.375Z,97261.52
2023-01-09T01:34:20.829Z,97255.67
2023-01-09T01:36:47.376Z,97257.19
2023-01-09T01:39:13.923Z,97253.61
2023-01-09T01:41:40.463Z,97248.22
2023-01-09T01:44:45.704Z,97245.61
2023-01-09T01:47:13.542Z,97242.59
2023-01-09T01:49:40.044Z,97238.39
2023-01-09T01:52:07.433Z,97232.54
2023-01-09T01:54:34.326Z,97231.88
2023-01-09T01:57:04.578Z,97230.20
2023-01-09T01:59:40.670Z,97223.20
2023-01-09T02:02:09.190Z,97223.00
2023-01-09T02:04:38.621Z,97223.30
2023-01-09T02:07:09.702Z,97222.30
2023-01-09T02:09:38.959Z,97227.74
2023-01-09T02:12:28.041Z,97223.10
2023-01-09T02:15:01.537Z,97226.24
2023-01-09T02:17:43.267Z,97230.01
2023-01-09T02:20:28.114Z,97227.96
2023-01-09T02:23:34.891Z,97224.35
2023-01-09T02:26:28.915Z,97221.05
2023-01-09T02:29:29.432Z,97215.95
2023-01-09T02:32:20.003Z,97210.69
2023-01-09T02:35:05.747Z,97207.45
2023-01-09T02:37:57.234Z,97203.08
2023-01-09T02:40:33.833Z,97201.56
2023-01-09T02:43:01.662Z,97201.00
2023-01-09T02:45:28.250Z,97199.67
2023-01-09T02:47:54.866Z,97195.20
2023-01-09T02:50:27.859Z,97200.26
2023-01-09T02:53:13.444Z,97205.17
2023-01-09T02:56:12.753Z,97194.55
2023-01-09T02:58:53.868Z,97203.42
2023-01-09T03:01:45.707Z,97198.90
2023-01-09T03:04:24.355Z,97190.03
2023-01-09T03:07:17.006Z,97186.29
2023-01-09T03:09:48.492Z,97190.48
2023-01-09T03:12:20.358Z,97189.14
2023-01-09T03:14:48.917Z,97189.09
2023-01-09T03:17:22.946Z,97179.24
2023-01-09T03:19:52.518Z,97175.98
2023-01-09T03:22:19.018Z,97174.10
2023-01-09T03:24:45.551Z,97170.30
2023-01-09T03:27:12.732Z,97167.87
2023-01-09T03:29:39.432Z,97171.14
2023-01-09T03:32:06.497Z,97166.95
2023-01-09T03:34:32.909Z,97165.48
2023-01-09T03:36:59.314Z,97178.88
2023-01-09T03:39:25.748Z,97179.71
2023-01-09T03:41:52.204Z,97183.09
2023-01-09T03:44:18.641Z,97185.94
2023-01-09T03:46:45.132Z,97182.68
2023-01-09T03:49:11.789Z,97181.95
2023-01-09T03:51:38.311Z,97176.22
2023-01-09T03:54:04.762Z,97166.80
2023-01-09T03:56:31.389Z,97161.02
2023-01-09T03:58:57.814Z,97167.09
2023-01-09T04:01:24.441Z,97173.86
2023-01-09T04:03:51.158Z,97177.41
2023-01-09T04:06:17.574Z,97169.73
2023-01-09T04:08:44.089Z,97154.89
2023-01-09T04:11:10.659Z,97151.52
2023-01-09T04:13:37.170Z,97142.75
2023-01-09T04:16:04.095Z,97152.14
2023-01-09T04:18:30.718Z,97158.84
2023-01-09T04:20:57.402Z,97153.91
2023-01-09T04:23:23.785Z,97158.35
2023-01-09T04:25:50.224Z,97158.04
2023-01-09T04:28:16.645Z,97153.61
2023-01-09T04:30:43.076Z,97147.23
2023-01-09T04:33:09.792Z,97142.52
2023-01-09T04:35:36.437Z,97137.61
2023-01-09T04:38:02.974Z,97134.16
2023-01-09T04:40:29.523Z,97129.13
2023-01-09T04:42:56.097Z,97130.55
2023-01-09T04:45:22.600Z,97129.47
2023-01-09T04:47:49.136Z,97126.94
2023-01-09T04:50:16.090Z,97133.78
2023-01-09T04:52:42.838Z,97133.18
2023-01-09T04:55:09.710Z,97132.35
2023-01-09T04:57:36.722Z,97132.92
2023-01-09T05:00:04.725Z,97132.69
2023-01-09T05:02:31.236Z,97126.54
2023-01-09T05:04:57.687Z,97121.73
2023-01-09T05:07:24.247Z,97121.40
2023-01-09T05:09:50.705Z,97115.29
2023-01-09T05:12:17.216Z,97113.57
2023-01-09T05:14:43.765Z,97107.52
2023-01-09T05:17:10.272Z,97105.98
2023-01-09T05:19:36.708Z,97095.89
2023-01-09T05:22:03.482Z,97094.76
2023-01-09T05:24:30.027Z,97096.73
2023-01-09T05:26:56.501Z,97085.52
2023-01-09T05:29:22.983Z,97078.67
2023-01-09T05:31:49.439Z,97071.64
2023-01-09T05:34:15.978Z,97070.11
2023-01-09T05:36:42.382Z,97059.41
2023-01-09T05:39:09.055Z,97057.66
2023-01-09T05:41:35.458Z,97060.14
2023-01-09T05:44:01.937Z,97058.19
2023-01-09T05:46:28.491Z,97053.81
2023-01-09T05:48:54.920Z,97056.44
2023-01-09T05:51:21.366Z,97049.23
2023-01-09T05:53:47.914Z,97049.74
2023-01-09T05:56:14.943Z,97053.09
2023-01-09T05:58:41.566Z,97052.17
2023-01-09T06:01:08.318Z,97050.55
2023-01-09T06:03:34.828Z,97040.50
2023-01-09T06:06:01.287Z,97052.12
2023-01-09T06:08:27.762Z,97049.77
2023-01-09T06:10:54.302Z,97050.52
2023-01-09T06:13:20.735Z,97045.30
2023-01-09T06:15:48.463Z,97039.85
2023-01-09T06:18:15.564Z,97038.31
2023-01-09T06:20:42.060Z,97035.98
2023-01-09T06:23:08.489Z,97038.42
2023-01-09T06:25:34.973Z,97050.23
2023-01-09T06:28:01.514Z,97051.87
2023-01-09T06:30:28.046Z,97051.91
2023-01-09T06:32:54.690Z,97052.69
2023-01-09T06:35:21.124Z,97051.48
2023-01-09T06:37:48.736Z,97050.27
2023-01-09T06:40:16.257Z,97050.58
2023-01-09T06:42:44.644Z,97044.46
2023-01-09T06:45:12.101Z,97044.99
2023-01-09T06:47:38.729Z,97045.14
2023-01-09T06:50:06.156Z,97046.95
2023-01-09T06:52:32.759Z,97052.69
2023-01-09T06:54:59.279Z,97057.42
2023-01-09T06:57:25.700Z,97060.35
2023-01-09T06:59:52.149Z,97063.05
2023-01-09T07:02:20.539Z,97064.19
2023-01-09T07:04:47.397Z,97066.77
2023-01-09T07:07:16.278Z,97071.05
2023-01-09T07:09:42.816Z,97070.20
2023-01-09T07:12:09.200Z,97066.41
2023-01-09T07:14:35.758Z,97071.54
2023-01-09T07:17:02.203Z,97073.04
2023-01-09T07:19:28.581Z,97074.88
2023-01-09T07:21:55.102Z,97078.90
2023-01-09T07:24:21.515Z,97078.38
2023-01-09T07:26:47.938Z,97080.22
2023-01-09T07:29:14.520Z,97068.23
2023-01-09T07:31:41.021Z,97064.09
2023-01-09T07:34:07.581Z,97067.20
2023-01-09T07:36:34.245Z,97071.88
2023-01-09T07:39:00.785Z,97070.75
2023-01-09T07:41:27.228Z,97070.17
2023-01-09T07:43:53.876Z,97067.09
2023-01-09T07:46:20.323Z,97063.31
2023-01-09T07:48:46.898Z,97066.59
2023-01-09T07:51:13.589Z,97070.41
2023-01-09T07:53:40.337Z,97071.23
2023-01-09T07:56:07.076Z,97066.77
2023-01-09T07:58:33.501Z,97062.46
2023-01-09T08:01:00.106Z,97067.58
2023-01-09T08:03:26.857Z,97066.80
2023-01-09T08:05:53.567Z,97061.73
2023-01-09T08:08:20.083Z,97064.49
2023-01-09T08:10:46.715Z,97064.27
2023-01-09T08:13:13.157Z,97057.63
2023-01-09T08:15:39.771Z,97047.58
2023-01-09T08:18:06.238Z,97045.14
2023-01-09T08:20:32.688Z,97038.55
2023-01-09T08:22:59.134Z,97028.98
2023-01-09T08:25:25.680Z,97015.95
2023-01-09T08:27:52.165Z,97012.86
2023-01-09T08:30:19.380Z,97019.63
2023-01-09T08:32:54.081Z,97025.27
2023-01-09T08:35:21.363Z,97028.39
2023-01-09T08:37:48.663Z,97029.61
2023-01-09T08:40:17.464Z,97033.54
2023-01-09T08:42:44.358Z,97034.29
2023-01-09T08:45:12.475Z,97031.30
2023-01-09T08:47:39.241Z,97026.96
2023-01-09T08:50:06.002Z,97024.31
2023-01-09T08:52:32.528Z,97021.03
2023-01-09T08:54:59.037Z,97020.02
2023-01-09T08:57:25.472Z,97018.02
2023-01-09T08:59:51.958Z,97019.13
2023-01-09T09:02:18.511Z,97020.58
2023-01-09T09:04:44.927Z,97023.20
2023-01-09T09:07:11.368Z,97024.00
2023-01-09T09:09:38.001Z,97036.20
2023-01-09T09:12:05.049Z,97028.22
2023-01-09T09:14:31.460Z,97029.52
2023-01-09T09:16:58.070Z,97027.69
2023-01-09T09:19:24.540Z,97027.73
2023-01-09T09:21:51.015Z,97020.14
2023-01-09T09:24:17.550Z,97025.84
2023-01-09T09:26:44.748Z,97030.24
2023-01-09T09:29:11.776Z,97035.35
2023-01-09T09:31:39.045Z,97029.84
2023-01-09T09:34:07.173Z,97021.78
2023-01-09T09:36:34.121Z,97016.93
2023-01-09T09:39:00.663Z,97015.75
2023-01-09T09:42:17.176Z,97012.55
2023-01-09T09:44:58.774Z,97016.28
2023-01-09T09:47:43.895Z,97001.52
2023-01-09T09:50:36.181Z,96995.55
2023-01-09T09:53:13.284Z,96990.73
2023-01-09T09:55:41.224Z,96993.84
2023-01-09T09:58:18.732Z,96981.91
2023-01-09T10:00:45.419Z,96972.64
2023-01-09T10:03:33.470Z,96968.45
2023-01-09T10:06:06.024Z,96963.48
2023-01-09T10:08:54.362Z,96963.57
2023-01-09T10:11:43.858Z,96960.11
2023-01-09T10:14:23.375Z,96964.35
2023-01-09T10:17:32.534Z,96955.77
2023-01-09T10:20:28.978Z,96950.20
2023-01-09T10:23:07.852Z,96960.27
2023-01-09T10:25:46.141Z,96959.27
2023-01-09T10:28:27.720Z,96957.44
2023-01-09T10:31:38.803Z,96948.36
2023-01-09T10:34:29.121Z,96957.13
2023-01-09T10:37:33.123Z,96962.63
2023-01-09T10:40:06.536Z,96968.74
2023-01-09T10:42:40.819Z,96965.46
2023-01-09T10:45:26.738Z,96973.27
2023-01-09T10:48:11.615Z,96971.09
2023-01-09T10:50:41.957Z,96966.41
2023-01-09T10:53:20.752Z,96969.15
2023-01-09T10:55:48.428Z,96968.44
2023-01-09T10:58:18.051Z,96969.39
2023-01-09T11:00:46.443Z,96972.83
2023-01-09T11:03:15.424Z,96964.81
2023-01-09T11:05:42.856Z,96963.75
2023-01-09T11:08:09.323Z,96962.89
2023-01-09T11:10:49.680Z,96960.84
2023-01-09T11:13:26.566Z,96951.38
2023-01-09T11:16:10.787Z,96946.42
2023-01-09T11:18:40.901Z,96931.91
2023-01-09T11:21:28.373Z,96934.62
2023-01-09T11:23:56.348Z,96933.83
2023-01-09T11:26:27.818Z,96932.29
2023-01-09T11:29:17.464Z,96923.67
2023-01-09T11:31:52.516Z,96920.68
2023-01-09T11:34:22.553Z,96919.45
2023-01-09T11:36:51.964Z,96916.91
2023-01-09T11:39:33.869Z,96917.53
2023-01-09T11:42:06.412Z,96906.85
2023-01-09T11:44:33.524Z,96909.80
2023-01-09T11:47:00.089Z,96917.48
2023-01-09T11:49:31.411Z,96920.02
2023-01-09T11:52:17.597Z,96916.36
2023-01-09T11:54:59.171Z,96911.80
2023-01-09T11:58:10.238Z,96899.45
2023-01-09T12:01:03.217Z,96885.88
2023-01-09T12:03:41.021Z,96895.52
2023-01-09T12:06:29.574Z,96894.37
2023-01-09T12:09:01.252Z,96892.39
2023-01-09T12:11:32.116Z,96893.70
2023-01-09T12:14:19.421Z,96891.23
2023-01-09T12:16:51.673Z,96891.95
2023-01-09T12:19:27.204Z,96892.69
2023-01-09T12:22:07.985Z,96895.62
2023-01-09T12:24:40.593Z,96897.44
2023-01-09T12:27:31.605Z,96904.06
2023-01-09T12:30:38.322Z,96903.07
2023-01-09T12:33:14.002Z,96905.54
2023-01-09T12:35:46.747Z,96909.12
2023-01-09T12:38:37.966Z,96904.91
2023-01-09T12:41:16.468Z,96899.36
2023-01-09T12:44:06.253Z,96900.42
2023-01-09T12:46:57.001Z,96888.70
2023-01-09T12:49:39.540Z,96897.57
2023-01-09T12:52:12.781Z,96894.88
2023-01-09T12:54:42.280Z,96900.80
2023-01-09T12:57:23.829Z,96895.63
2023-01-09T13:00:01.260Z,96896.11
2023-01-09T13:02:36.853Z,96888.09
2023-01-09T13:05:13.725Z,96879.87
2023-01-09T13:08:05.246Z,96870.98
2023-01-09T13:10:39.184Z,96864.90
2023-01-09T13:13:20.535Z,96871.42
2023-01-09T13:16:04.301Z,96867.09
2023-01-09T13:18:45.667Z,96866.95
2023-01-09T13:21:13.528Z,96877.80
2023-01-09T13:24:28.616Z,96888.64
2023-01-09T13:27:06.821Z,96891.38
2023-01-09T13:29:38.384Z,96901.75
2023-01-09T13:32:34.214Z,96912.51
2023-01-09T13:35:00.857Z,96918.27
2023-01-09T13:37:30.444Z,96917.77
2023-01-09T13:40:02.773Z,96903.56
2023-01-09T13:42:29.593Z,96908.13
2023-01-09T13:45:08.926Z,96895.45
2023-01-09T13:47:35.465Z,96888.63
2023-01-09T13:50:22.517Z,96884.06
2023-01-09T13:52:49.876Z,96867.98
2023-01-09T13:55:16.513Z,96873.73
2023-01-09T13:58:05.114Z,96868.05
2023-01-09T14:00:34.772Z,96888.36
2023-01-09T14:03:25.529Z,96901.89
2023-01-09T14:05:52.008Z,96915.83
2023-01-09T14:08:20.989Z,96920.49
2023-01-09T14:10:51.979Z,96932.06
2023-01-09T14:13:25.423Z,96926.00
2023-01-09T14:16:01.626Z,96932.33
2023-01-09T14:18:50.485Z,96939.77
2023-01-09T14:21:17.665Z,96948.52
2023-01-09T14:24:04.402Z,96946.38
2023-01-09T14:26:43.378Z,96956.80
2023-01-09T14:29:28.674Z,96960.71
2023-01-09T14:32:21.249Z,96960.31
2023-01-09T14:35:07.004Z,96950.68
2023-01-09T14:37:37.110Z,96953.14
2023-01-09T14:40:08.282Z,96958.40
2023-01-09T14:42:40.348Z,96958.29
2023-01-09T14:45:14.906Z,96969.42
2023-01-09T14:48:11.765Z,96964.61
2023-01-09T14:50:44.927Z,96960.45
2023-01-09T14:53:17.097Z,96956.71
2023-01-09T14:56:01.229Z,96955.98
2023-01-09T14:58:28.734Z,96958.23
2023-01-09T15:01:05.969Z,96959.06
2023-01-09T15:03:40.844Z,96961.95
2023-01-09T15:06:15.581Z,96967.86
2023-01-09T15:08:45.275Z,96967.46
2023-01-09T15:11:13.464Z,96968.57
2023-01-09T15:13:46.858Z,96969.93
2023-01-09T15:16:20.089Z,96969.59
2023-01-09T15:18:52.121Z,96975.98
2023-01-09T15:21:23.147Z,96976.73
2023-01-09T15:23:50.291Z,96972.91
2023-01-09T15:26:30.080Z,96979.84
2023-01-09T15:29:16.236Z,96983.11
2023-01-09T15:31:45.063Z,96989.34
2023-01-09T15:34:20.061Z,96998.60
2023-01-09T15:36:46.713Z,97006.70
2023-01-09T15:39:28.116Z,97012.48
2023-01-09T15:42:22.414Z,97008.48
2023-01-09T15:44:51.517Z,97010.96
2023-01-09T15:47:24.102Z,97009.03
2023-01-09T15:49:51.150Z,97015.27
2023-01-09T15:52:18.858Z,97021.61
2023-01-09T15:54:46.272Z,97019.66
2023-01-09T15:57:25.044Z,97021.27
2023-01-09T15:59:56.688Z,97026.05
2023-01-09T16:02:24.341Z,97028.70
2023-01-09T16:04:54.953Z,97032.48
2023-01-09T16:07:21.496Z,97037.45
2023-01-09T16:09:49.972Z,97041.90
2023-01-09T16:12:22.505Z,97042.94
2023-01-09T16:14:56.340Z,97041.86
2023-01-09T16:17:23.308Z,97039.95
2023-01-09T16:19:55.888Z,97044.25
2023-01-09T16:22:33.896Z,97044.23
2023-01-09T16:25:22.324Z,97049.25
2023-01-09T16:28:27.471Z,97049.66
2023-01-09T16:30:58.049Z,97053.77
2023-01-09T16:33:27.149Z,97052.09
2023-01-09T16:35:54.076Z,97055.50
2023-01-09T16:38:21.637Z,97053.61
2023-01-09T16:41:13.102Z,97052.27
2023-01-09T16:43:39.505Z,97048.39
2023-01-09T16:46:05.994Z,97044.67
2023-01-09T16:48:33.721Z,97041.05
2023-01-09T16:51:00.393Z,97041.50
2023-01-09T16:53:26.891Z,97051.55
2023-01-09T16:55:54.470Z,97056.27
2023-01-09T16:58:29.303Z,97056.27
2023-01-09T17:00:56.904Z,97055.39
2023-01-09T17:03:23.781Z,97061.09
2023-01-09T17:05:53.945Z,97060.64
2023-01-09T17:08:26.910Z,97062.64
2023-01-09T17:10:55.396Z,97065.27
2023-01-09T17:13:22.702Z,97066.52
2023-01-09T17:15:49.228Z,97068.05
2023-01-09T17:18:17.904Z,97071.71
2023-01-09T17:20:47.996Z,97077.66
2023-01-09T17:23:14.766Z,97080.80
2023-01-09T17:25:42.300Z,97092.58
2023-01-09T17:28:18.176Z,97102.34
2023-01-09T17:30:44.717Z,97103.19
2023-01-09T17:33:18.860Z,97103.30
2023-01-09T17:35:45.911Z,97099.21
2023-01-09T17:38:16.218Z,97098.36
2023-01-09T17:40:43.914Z,97102.31
2023-01-09T17:43:11.317Z,97101.43
2023-01-09T17:45:42.030Z,97102.12
2023-01-09T17:48:15.434Z,97107.91
2023-01-09T17:50:42.429Z,97106.79
2023-01-09T17:53:08.880Z,97104.30
2023-01-09T17:55:35.815Z,97104.92
2023-01-09T17:58:02.458Z,97099.85
2023-01-09T18:00:32.478Z,97103.16
2023-01-09T18:02:58.900Z,97108.30
2023-01-09T18:05:26.284Z,97114.81
2023-01-09T18:07:52.819Z,97112.76
2023-01-09T18:10:22.825Z,97119.31
2023-01-09T18:12:51.227Z,97118.50
2023-01-09T18:15:18.157Z,97115.06
2023-01-09T18:17:44.664Z,97115.95
2023-01-09T18:20:11.773Z,97114.02
2023-01-09T18:22:38.150Z,97113.64
2023-01-09T18:25:05.380Z,97116.20
2023-01-09T18:27:32.222Z,97118.04
2023-01-09T18:29:58.609Z,97115.36
2023-01-09T18:32:25.080Z,97113.70
2023-01-09T18:34:51.620Z,97113.23
2023-01-09T18:37:18.235Z,97108.23
2023-01-09T18:39:45.005Z,97112.59
2023-01-09T18:42:11.462Z,97111.00
2023-01-09T18:44:37.907Z,97110.93
2023-01-09T18:47:04.519Z,97118.76
2023-01-09T18:49:31.065Z,97113.50
2023-01-09T18:51:57.461Z,97107.21
2023-01-09T18:54:23.932Z,97099.41
2023-01-09T18:56:50.373Z,97103.45
2023-01-09T18:59:16.772Z,97103.86
2023-01-09T19:01:43.446Z,97109.54
2023-01-09T19:04:10.049Z,97113.36
2023-01-09T19:06:36.640Z,97118.20
2023-01-09T19:09:03.690Z,97120.23
2023-01-09T19:11:30.226Z,97120.80
2023-01-09T19:13:56.662Z,97121.35
2023-01-09T19:16:23.145Z,97124.98
2023-01-09T19:18:49.735Z,97127.06
2023-01-09T19:21:18.769Z,97129.48
2023-01-09T19:23:47.029Z,97132.09
2023-01-09T19:26:24.502Z,97132.25
2023-01-09T19:28:51.881Z,97137.80
2023-01-09T19:31:18.723Z,97146.00
2023-01-09T19:33:45.465Z,97147.00
2023-01-09T19:36:12.239Z,97149.30
2023-01-09T19:38:38.643Z,97151.16
2023-01-09T19:41:09.597Z,97157.35
2023-01-09T19:43:36.733Z,97157.69
2023-01-09T19:46:07.398Z,97159.45
2023-01-09T19:48:34.135Z,97154.77
2023-01-09T19:51:06.808Z,97159.73
2023-01-09T19:53:35.027Z,97157.13
2023-01-09T19:56:12.657Z,97155.88
2023-01-09T19:58:40.065Z,97153.30
2023-01-09T20:01:14.916Z,97146.29
2023-01-09T20:03:43.475Z,97151.65
2023-01-09T20:06:12.399Z,97150.95
2023-01-09T20:08:39.083Z,97148.04
2023-01-09T20:11:05.626Z,97149.05
2023-01-09T20:13:33.553Z,97145.67
2023-01-09T20:16:01.130Z,97145.38
2023-01-09T20:18:32.680Z,97143.58
2023-01-09T20:20:59.719Z,97151.75
2023-01-09T20:23:28.093Z,97149.94
2023-01-09T20:25:56.099Z,97155.53
2023-01-09T20:28:23.922Z,97151.93
2023-01-09T20:30:51.913Z,97154.09
2023-01-09T20:33:20.371Z,97154.95
2023-01-09T20:35:47.845Z,97146.69
2023-01-09T20:38:14.706Z,97143.91
2023-01-09T20:40:41.322Z,97147.46
2023-01-09T20:43:07.731Z,97145.85
2023-01-09T20:45:34.660Z,97146.22
2023-01-09T20:48:01.375Z,97152.71
2023-01-09T20:50:28.017Z,97155.95
2023-01-09T20:52:54.661Z,97156.55
2023-01-09T20:55:21.100Z,97158.36
2023-01-09T20:57:47.504Z,97160.73
2023-01-09T21:00:14.801Z,97164.06
2023-01-09T21:02:41.336Z,97165.05
2023-01-09T21:05:08.433Z,97171.32
2023-01-09T21:07:34.997Z,97171.17
2023-01-09T21:10:01.777Z,97172.73
2023-01-09T21:12:28.210Z,97169.33
2023-01-09T21:14:55.262Z,97169.42
2023-01-09T21:17:21.924Z,97162.87
2023-01-09T21:19:49.054Z,97165.56
2023-01-09T21:22:18.463Z,97167.04
2023-01-09T21:24:48.806Z,97171.60
2023-01-09T21:27:15.518Z,97176.90
2023-01-09T21:29:41.960Z,97181.48
2023-01-09T21:32:08.718Z,97182.25
2023-01-09T21:34:35.153Z,97183.26
2023-01-09T21:37:01.955Z,97185.17
2023-01-09T21:39:28.727Z,97193.42
2023-01-09T21:41:55.424Z,97193.80
2023-01-09T21:44:21.938Z,97197.61
2023-01-09T21:46:48.575Z,97200.01
2023-01-09T21:49:15.115Z,97201.50
2023-01-09T21:51:42.175Z,97198.59
2023-01-09T21:54:09.222Z,97194.92
2023-01-09T21:56:35.839Z,97193.97
2023-01-09T21:59:03.222Z,97197.20
2023-01-09T22:01:29.841Z,97200.04
2023-01-09T22:03:57.203Z,97202.11
2023-01-09T22:06:24.337Z,97201.09
2023-01-09T22:08:51.121Z,97204.33
2023-01-09T22:11:17.633Z,97211.02
2023-01-09T22:13:49.551Z,97212.92
2023-01-09T22:16:17.752Z,97213.12
2023-01-09T22:18:44.547Z,97214.42
2023-01-09T22:21:11.353Z,97214.06
2023-01-09T22:23:37.975Z,97214.31
2023-01-09T22:26:13.046Z,97208.08
2023-01-09T22:28:40.407Z,97207.98
2023-01-09T22:31:11.374Z,97206.69
2023-01-09T22:33:37.975Z,97203.35
2023-01-09T22:36:06.910Z,97207.88
2023-01-09T22:39:17.812Z,97207.57
2023-01-09T22:42:28.604Z,97205.02
2023-01-09T22:45:39.833Z,97201.75
2023-01-09T22:48:50.380Z,97196.95
2023-01-09T22:52:01.873Z,97199.44
2023-01-09T22:55:12.651Z,97198.14
2023-01-09T22:58:23.721Z,97196.69
2023-01-09T23:00:50.159Z,97195.83
2023-01-09T23:03:16.575Z,97200.15
2023-01-09T23:05:43.137Z,97197.75
2023-01-09T23:08:09.576Z,97195.04
2023-01-09T23:10:36.202Z,97194.60
2023-01-09T23:13:02.768Z,97197.58
2023-01-09T23:15:29.159Z,97199.76
2023-01-09T23:17:55.648Z,97201.92
2023-01-09T23:20:22.181Z,97201.24
2023-01-09T23:22:48.720Z,97205.28
2023-01-09T23:25:15.504Z,97204.56
2023-01-09T23:27:42.823Z,97204.36
2023-01-09T23:30:10.279Z,97206.98
2023-01-09T23:32:36.829Z,97209.82
2023-01-09T23:35:03.692Z,97210.81
2023-01-09T23:37:30.182Z,97212.68
2023-01-09T23:39:56.625Z,97214.20
2023-01-09T23:42:23.242Z,97216.39
2023-01-09T23:44:49.843Z,97224.07
2023-01-09T23:47:16.382Z,97223.40
2023-01-09T23:49:42.801Z,97225.86
2023-01-09T23:52:09.362Z,97222.77
2023-01-09T23:54:35.811Z,97221.89
2023-01-09T23:57:02.337Z,97223.86
2023-01-09T23:59:28.886Z,97221.09
